createdAt,value
2018-07-27T00:02:43.659Z,5.65
2018-07-27T00:05:47.268Z,6.00
2018-07-27T00:08:50.920Z,6.53
2018-07-27T00:11:54.550Z,6.37
2018-07-27T00:14:58.398Z,6.22
2018-07-27T00:18:02.016Z,7.28
2018-07-27T00:21:05.662Z,6.60
2018-07-27T00:24:09.325Z,6.83
2018-07-27T00:27:12.966Z,5.80
2018-07-27T00:30:16.603Z,6.58
2018-07-27T00:33:20.047Z,6.40
2018-07-27T00:36:23.569Z,9.28
2018-07-27T00:39:27.199Z,6.80
2018-07-27T00:42:30.712Z,6.95
2018-07-27T00:45:34.059Z,6.47
2018-07-27T00:48:37.577Z,6.17
2018-07-27T00:51:41.398Z,7.10
2018-07-27T00:54:44.985Z,6.63
2018-07-27T00:57:48.621Z,7.17
2018-07-27T01:00:52.314Z,6.67
2018-07-27T01:03:55.953Z,6.40
2018-07-27T01:06:59.581Z,6.80
2018-07-27T01:10:03.498Z,7.07
2018-07-27T01:13:07.179Z,6.63
2018-07-27T01:16:10.804Z,6.93
2018-07-27T01:19:14.511Z,6.50
2018-07-27T01:22:18.141Z,6.93
2018-07-27T01:25:21.793Z,7.10
2018-07-27T01:28:25.425Z,6.77
2018-07-27T01:31:29.179Z,6.50
2018-07-27T01:34:32.818Z,6.47
2018-07-27T01:37:36.542Z,7.30
2018-07-27T01:40:40.159Z,7.13
2018-07-27T01:43:43.815Z,7.87
2018-07-27T01:46:47.630Z,7.30
2018-07-27T01:49:51.363Z,7.10
2018-07-27T01:52:55.152Z,7.50
2018-07-27T01:55:58.761Z,7.43
2018-07-27T01:59:02.407Z,7.70
2018-07-27T02:02:06.132Z,7.07
2018-07-27T02:05:09.581Z,7.37
2018-07-27T02:08:13.322Z,7.60
2018-07-27T02:11:16.961Z,7.90
2018-07-27T02:14:20.572Z,8.40
2018-07-27T02:17:24.259Z,7.70
2018-07-27T02:20:27.907Z,8.07
2018-07-27T02:23:31.345Z,7.80
2018-07-27T02:26:34.870Z,8.47
2018-07-27T02:29:38.504Z,8.10
2018-07-27T02:32:42.124Z,8.63
2018-07-27T02:35:45.753Z,8.87
2018-07-27T02:38:49.383Z,8.10
2018-07-27T02:41:53.053Z,8.90
2018-07-27T02:44:56.691Z,8.97
2018-07-27T02:48:00.137Z,8.27
2018-07-27T02:51:03.662Z,9.10
2018-07-27T02:54:07.312Z,8.73
2018-07-27T02:57:10.922Z,8.40
2018-07-27T03:00:15.974Z,8.90
2018-07-27T03:03:19.612Z,7.77
2018-07-27T03:06:23.332Z,9.17
2018-07-27T03:09:26.950Z,8.27
2018-07-27T03:12:30.408Z,9.33
2018-07-27T03:15:33.947Z,9.57
2018-07-27T03:18:37.650Z,9.30
2018-07-27T03:21:41.107Z,9.23
2018-07-27T03:24:44.660Z,9.77
2018-07-27T03:27:48.268Z,9.97
2018-07-27T03:30:51.895Z,9.00
2018-07-27T03:33:55.527Z,9.43
2018-07-27T03:36:59.236Z,10.27
2018-07-27T03:40:03.129Z,9.90
2018-07-27T03:43:06.775Z,9.53
2018-07-27T03:46:10.405Z,9.60
2018-07-27T03:49:14.061Z,9.60
2018-07-27T03:52:17.666Z,9.03
2018-07-27T03:55:21.495Z,9.07
2018-07-27T03:58:25.113Z,8.90
2018-07-27T04:01:28.773Z,8.90
2018-07-27T04:04:32.218Z,9.30
2018-07-27T04:07:35.760Z,9.60
2018-07-27T04:10:39.370Z,8.85
2018-07-27T04:13:43.002Z,9.43
2018-07-27T04:16:46.688Z,9.70
2018-07-27T04:19:50.857Z,9.53
2018-07-27T04:22:54.465Z,9.50
2018-07-27T04:25:58.118Z,9.88
2018-07-27T04:29:01.735Z,8.98
2018-07-27T04:32:05.365Z,9.53
2018-07-27T04:35:08.976Z,9.75
2018-07-27T04:38:12.626Z,9.80
2018-07-27T04:41:16.244Z,9.18
2018-07-27T04:44:19.893Z,9.70
2018-07-27T04:47:23.508Z,8.95
2018-07-27T04:50:27.545Z,9.35
2018-07-27T04:53:31.157Z,9.38
2018-07-27T04:56:34.904Z,9.45
2018-07-27T04:59:38.426Z,9.28
2018-07-27T05:02:42.078Z,9.15
2018-07-27T05:05:45.705Z,9.15
2018-07-27T05:08:54.849Z,9.38
2018-07-27T05:11:58.488Z,9.48
2018-07-27T05:15:01.922Z,8.90
2018-07-27T05:18:05.490Z,9.15
2018-07-27T05:21:09.119Z,8.68
2018-07-27T05:24:12.748Z,9.43
2018-07-27T05:27:16.391Z,9.18
2018-07-27T05:30:20.017Z,8.95
2018-07-27T05:33:23.638Z,9.28
2018-07-27T05:36:27.293Z,9.25
2018-07-27T05:39:30.993Z,9.33
2018-07-27T05:42:34.952Z,9.10
2018-07-27T05:45:38.600Z,8.85
2018-07-27T05:48:42.314Z,9.13
2018-07-27T05:51:45.854Z,9.23
2018-07-27T05:54:49.502Z,8.65
2018-07-27T05:57:53.220Z,8.20
2018-07-27T06:00:56.727Z,8.53
2018-07-27T06:04:00.355Z,8.28
2018-07-27T06:07:03.998Z,8.53
2018-07-27T06:10:08.097Z,8.65
2018-07-27T06:13:11.830Z,9.00
2018-07-27T06:16:15.565Z,8.90
2018-07-27T06:19:19.251Z,8.60
2018-07-27T06:22:22.894Z,9.00
2018-07-27T06:25:26.546Z,8.53
2018-07-27T06:28:30.746Z,8.75
2018-07-27T06:31:36.917Z,8.43
2018-07-27T06:34:40.775Z,8.18
2018-07-27T06:37:44.417Z,7.70
2018-07-27T06:40:48.086Z,8.28
2018-07-27T06:43:51.741Z,8.28
2018-07-27T06:46:55.376Z,9.13
2018-07-27T06:49:59.202Z,8.28
2018-07-27T06:53:03.055Z,8.18
2018-07-27T06:56:06.512Z,7.67
2018-07-27T06:59:10.075Z,7.80
2018-07-27T07:02:13.817Z,7.58
2018-07-27T07:05:17.458Z,7.70
2018-07-27T07:08:20.943Z,7.75
2018-07-27T07:11:24.298Z,7.90
2018-07-27T07:14:27.829Z,7.62
2018-07-27T07:17:31.571Z,8.13
2018-07-27T07:20:35.192Z,7.92
2018-07-27T07:23:38.830Z,7.62
2018-07-27T07:26:42.459Z,7.20
2018-07-27T07:29:45.904Z,6.55
2018-07-27T07:32:49.722Z,7.40
2018-07-27T07:35:53.367Z,7.62
2018-07-27T07:38:56.824Z,7.75
2018-07-27T07:42:00.374Z,7.75
2018-07-27T07:45:04.404Z,6.67
2018-07-27T07:48:07.984Z,6.60
2018-07-27T07:51:11.420Z,6.60
2018-07-27T07:54:14.979Z,6.53
2018-07-27T07:57:18.589Z,6.47
2018-07-27T08:00:22.484Z,6.85
2018-07-27T08:03:26.138Z,6.28
2018-07-27T08:06:29.676Z,6.75
2018-07-27T08:09:33.305Z,6.97
2018-07-27T08:12:36.909Z,6.37
2018-07-27T08:15:40.762Z,6.40
2018-07-27T08:18:44.406Z,5.90
2018-07-27T08:21:48.034Z,5.80
2018-07-27T08:24:51.644Z,6.03
2018-07-27T08:28:06.586Z,5.90
2018-07-27T08:31:10.020Z,5.92
2018-07-27T08:34:14.251Z,5.92
2018-07-27T08:37:17.959Z,5.97
2018-07-27T08:40:21.557Z,6.40
2018-07-27T08:44:54.468Z,6.00
2018-07-27T08:47:58.160Z,6.05
2018-07-27T08:51:01.776Z,5.42
2018-07-27T08:54:05.657Z,5.50
2018-07-27T08:57:09.271Z,5.22
2018-07-27T09:00:13.650Z,5.33
2018-07-27T09:03:17.291Z,5.50
2018-07-27T09:06:21.235Z,5.50
2018-07-27T09:09:24.831Z,5.53
2018-07-27T09:12:28.303Z,5.95
2018-07-27T09:15:31.805Z,5.65
2018-07-27T09:18:35.457Z,5.30
2018-07-27T09:21:39.097Z,5.30
2018-07-27T09:24:42.860Z,5.58
2018-07-27T09:27:46.234Z,5.72
2018-07-27T09:30:49.746Z,5.60
2018-07-27T09:33:53.370Z,5.40
2018-07-27T09:36:57.012Z,5.90
2018-07-27T09:40:00.649Z,5.05
2018-07-27T09:43:04.285Z,5.22
2018-07-27T09:46:07.932Z,4.92
2018-07-27T09:49:11.582Z,4.85
2018-07-27T09:52:15.197Z,4.90
2018-07-27T09:55:18.898Z,5.55
2018-07-27T09:58:22.506Z,4.42
2018-07-27T10:01:27.694Z,4.50
2018-07-27T10:04:31.422Z,4.42
2018-07-27T10:07:35.051Z,4.22
2018-07-27T10:10:38.725Z,4.30
2018-07-27T10:13:42.435Z,4.78
2018-07-27T10:16:46.217Z,4.45
2018-07-27T10:19:49.807Z,4.80
2018-07-27T10:22:53.495Z,4.80
2018-07-27T10:25:57.106Z,4.72
2018-07-27T10:29:00.777Z,5.03
2018-07-27T10:32:04.440Z,4.92
2018-07-27T10:35:08.063Z,4.83
2018-07-27T10:38:11.674Z,5.08
2018-07-27T10:41:15.316Z,4.78
2018-07-27T10:44:19.040Z,4.17
2018-07-27T10:47:22.709Z,4.40
2018-07-27T10:50:26.443Z,4.10
2018-07-27T10:53:30.142Z,3.87
2018-07-27T10:56:33.730Z,4.25
2018-07-27T10:59:38.482Z,4.40
2018-07-27T11:02:42.189Z,4.40
2018-07-27T11:05:45.676Z,4.22
2018-07-27T11:08:49.334Z,4.10
2018-07-27T11:11:52.716Z,4.10
2018-07-27T11:14:56.245Z,4.47
2018-07-27T11:17:59.905Z,4.15
2018-07-27T11:21:03.346Z,4.78
2018-07-27T11:24:06.897Z,4.28
2018-07-27T11:27:10.704Z,4.17
2018-07-27T11:30:14.383Z,3.98
2018-07-27T11:33:17.988Z,3.83
2018-07-27T11:36:21.466Z,4.20
2018-07-27T11:39:25.140Z,3.95
2018-07-27T11:42:28.833Z,4.00
2018-07-27T11:45:32.210Z,4.30
2018-07-27T11:48:35.737Z,4.35
2018-07-27T11:51:39.386Z,3.67
2018-07-27T11:54:42.972Z,4.20
2018-07-27T11:57:46.598Z,3.90
2018-07-27T12:00:50.711Z,4.28
2018-07-27T13:26:27.753Z,3.80
2018-07-27T13:29:31.218Z,3.50
2018-07-27T13:32:34.810Z,3.58
2018-07-27T13:38:42.139Z,3.58
2018-07-27T13:41:45.946Z,4.20
2018-07-27T13:44:49.602Z,3.87
2018-07-27T13:47:53.514Z,3.55
2018-07-27T13:50:57.135Z,3.60
2018-07-27T13:54:00.773Z,3.95
2018-07-27T13:57:04.324Z,4.15
2018-07-27T14:00:07.959Z,3.72
2018-07-27T14:03:11.620Z,3.85
2018-07-27T14:06:15.234Z,4.05
2018-07-27T14:09:18.986Z,3.62
2018-07-27T14:12:22.872Z,3.58
2018-07-27T14:15:26.627Z,3.90
2018-07-27T14:18:30.185Z,3.52
2018-07-27T14:21:33.911Z,3.35
2018-07-27T14:24:37.477Z,3.77
2018-07-27T14:27:41.130Z,3.80
2018-07-27T14:30:44.742Z,3.58
2018-07-27T14:33:48.408Z,3.95
2018-07-27T14:36:52.235Z,3.70
2018-07-27T14:39:55.821Z,4.40
2018-07-27T14:42:59.272Z,4.10
2018-07-27T14:46:02.882Z,4.20
2018-07-27T14:49:12.163Z,4.00
2018-07-27T14:52:15.840Z,3.85
2018-07-27T14:55:19.395Z,3.77
2018-07-27T14:58:22.998Z,3.98
2018-07-27T15:01:26.628Z,4.00
2018-07-27T15:04:30.339Z,3.70
2018-07-27T15:07:33.984Z,3.65
2018-07-27T15:10:37.674Z,3.95
2018-07-27T15:13:41.469Z,4.17
2018-07-27T15:16:44.922Z,4.03
2018-07-27T15:19:48.455Z,3.80
2018-07-27T15:22:52.176Z,4.37
2018-07-27T15:25:55.780Z,4.22
2018-07-27T15:28:59.204Z,3.98
2018-07-27T15:32:02.794Z,3.60
2018-07-27T15:35:06.443Z,4.00
2018-07-27T15:38:10.062Z,3.87
2018-07-27T15:41:13.672Z,3.87
2018-07-27T15:44:17.299Z,4.12
2018-07-27T15:47:20.913Z,4.20
2018-07-27T15:50:24.587Z,4.30
2018-07-27T15:53:28.006Z,4.10
2018-07-27T15:56:31.576Z,4.00
2018-07-27T15:59:35.249Z,4.42
2018-07-27T16:02:38.883Z,3.80
2018-07-27T16:05:42.381Z,3.80
2018-07-27T16:08:45.733Z,3.98
2018-07-27T16:11:49.348Z,3.80
2018-07-27T16:14:53.091Z,4.03
2018-07-27T16:17:56.837Z,3.95
2018-07-27T16:21:00.474Z,3.55
2018-07-27T16:24:04.096Z,3.52
2018-07-27T16:27:07.543Z,4.42
2018-07-27T16:30:11.092Z,4.12
2018-07-27T16:33:14.721Z,4.20
2018-07-27T16:36:18.367Z,3.67
2018-07-27T16:39:22.085Z,4.20
2018-07-27T16:42:25.680Z,4.35
2018-07-27T16:45:29.305Z,4.03
2018-07-27T16:48:32.962Z,4.10
2018-07-27T16:51:36.591Z,4.45
2018-07-27T16:54:40.449Z,4.75
2018-07-27T16:57:44.123Z,4.53
2018-07-27T17:00:47.733Z,4.67
2018-07-27T17:03:51.344Z,4.72
2018-07-27T17:06:54.967Z,4.83
2018-07-27T17:09:58.790Z,4.45
2018-07-27T17:13:02.560Z,4.55
2018-07-27T17:16:06.241Z,4.62
2018-07-27T17:19:09.812Z,4.87
2018-07-27T17:22:13.481Z,4.92
2018-07-27T17:25:17.342Z,5.05
2018-07-27T17:28:21.021Z,4.80
2018-07-27T17:31:24.625Z,4.80
2018-07-27T17:34:28.364Z,4.87
2018-07-27T17:37:31.993Z,4.85
2018-07-27T17:40:35.630Z,4.67
2018-07-27T17:43:39.238Z,4.67
2018-07-27T17:46:42.876Z,5.10
2018-07-27T17:49:46.524Z,5.50
2018-07-27T17:52:50.475Z,4.72
2018-07-27T17:55:54.116Z,4.97
2018-07-27T17:58:57.714Z,5.08
2018-07-27T18:02:01.475Z,5.20
2018-07-27T18:05:05.087Z,5.50
2018-07-27T18:08:08.545Z,5.15
2018-07-27T18:11:12.038Z,4.72
2018-07-27T18:14:15.793Z,5.22
2018-07-27T18:17:19.405Z,4.80
2018-07-27T18:20:23.047Z,5.25
2018-07-27T18:23:26.753Z,5.17
2018-07-27T18:26:30.474Z,5.83
2018-07-27T18:29:34.415Z,5.87
2018-07-27T18:32:38.018Z,5.90
2018-07-27T18:35:41.469Z,5.50
2018-07-27T18:38:45.009Z,6.12
2018-07-27T18:41:48.622Z,6.10
2018-07-27T18:44:52.460Z,6.08
2018-07-27T18:47:56.081Z,6.00
2018-07-27T18:50:59.716Z,6.90
2018-07-27T18:54:03.782Z,6.83
2018-07-27T18:57:07.469Z,6.28
2018-07-27T19:00:11.811Z,7.00
2018-07-27T19:03:15.663Z,6.47
2018-07-27T19:06:19.104Z,6.15
2018-07-27T19:09:22.667Z,6.50
2018-07-27T19:12:26.094Z,7.03
2018-07-27T19:15:29.658Z,6.60
2018-07-27T19:18:33.125Z,7.70
2018-07-27T19:21:36.743Z,7.58
2018-07-27T19:24:40.386Z,7.25
2018-07-27T19:27:44.023Z,6.47
2018-07-27T19:30:47.659Z,6.83
2018-07-27T19:33:51.282Z,6.85
2018-07-27T19:36:54.930Z,6.78
2018-07-27T19:39:58.677Z,7.40
2018-07-27T19:43:02.324Z,6.80
2018-07-27T19:46:05.966Z,7.40
2018-07-27T19:49:09.676Z,6.78
2018-07-27T19:52:13.304Z,6.70
2018-07-27T19:55:16.933Z,6.50
2018-07-27T19:58:20.657Z,6.92
2018-07-27T20:01:24.323Z,7.10
2018-07-27T20:04:27.971Z,6.35
2018-07-27T20:07:31.654Z,6.65
2018-07-27T20:10:35.329Z,6.08
2018-07-27T20:13:39.042Z,6.20
2018-07-27T20:16:42.692Z,6.28
2018-07-27T20:19:46.289Z,6.40
2018-07-27T20:22:50.160Z,6.47
2018-07-27T20:25:53.765Z,7.28
2018-07-27T20:28:57.681Z,7.75
2018-07-27T20:32:01.302Z,7.83
2018-07-27T20:35:04.945Z,7.47
2018-07-27T20:38:08.556Z,6.75
2018-07-27T20:41:12.342Z,6.70
2018-07-27T20:44:16.001Z,6.45
2018-07-27T20:47:19.627Z,6.40
2018-07-27T20:50:23.467Z,6.87
2018-07-27T20:53:27.085Z,6.58
2018-07-27T20:56:30.706Z,6.50
2018-07-27T20:59:34.347Z,6.75
2018-07-27T21:02:39.261Z,6.33
2018-07-27T21:05:42.869Z,6.50
2018-07-27T21:08:46.618Z,6.87
2018-07-27T21:11:50.255Z,6.47
2018-07-27T21:14:53.913Z,7.00
2018-07-27T21:17:57.538Z,6.58
2018-07-27T21:22:04.535Z,6.55
2018-07-27T21:25:08.438Z,6.42
2018-07-27T21:28:12.050Z,6.80
2018-07-27T21:31:15.709Z,6.78
2018-07-27T21:34:20.819Z,7.72
2018-07-27T21:37:24.481Z,7.60
2018-07-27T21:40:28.198Z,7.55
2018-07-27T21:43:31.847Z,6.95
2018-07-27T21:46:35.703Z,6.58
2018-07-27T21:49:39.343Z,6.95
2018-07-27T21:52:42.947Z,6.55
2018-07-27T21:55:46.579Z,6.83
2018-07-27T21:58:50.264Z,6.58
2018-07-27T22:01:53.933Z,6.50
2018-07-27T22:04:57.605Z,6.70
2018-07-27T22:08:01.314Z,6.47
2018-07-27T22:11:04.962Z,7.25
2018-07-27T22:14:08.700Z,7.50
2018-07-27T22:17:12.311Z,7.30
2018-07-27T22:20:16.041Z,7.22
2018-07-27T22:23:19.689Z,7.05
2018-07-27T22:26:23.432Z,6.95
2018-07-27T22:29:27.122Z,7.17
2018-07-27T22:32:30.918Z,6.85
2018-07-27T22:35:34.512Z,7.17
2018-07-27T22:38:37.961Z,7.12
2018-07-27T22:41:41.501Z,7.60
2018-07-27T22:44:44.959Z,7.40
2018-07-27T22:47:48.465Z,7.60
2018-07-27T22:50:52.098Z,7.37
2018-07-27T22:53:55.553Z,7.67
2018-07-27T22:56:59.096Z,7.60
2018-07-27T23:00:02.537Z,7.85
2018-07-27T23:03:06.487Z,7.58
2018-07-27T23:06:10.091Z,7.95
2018-07-27T23:09:13.741Z,7.22
2018-07-27T23:12:17.350Z,6.53
2018-07-27T23:15:20.998Z,6.80
2018-07-27T23:18:25.095Z,7.35
2018-07-27T23:21:29.129Z,7.33
2018-07-27T23:24:32.464Z,7.17
2018-07-27T23:27:36.341Z,7.80
2018-07-27T23:30:39.922Z,7.60
2018-07-27T23:33:43.605Z,7.60
2018-07-27T23:36:47.213Z,6.97
2018-07-27T23:39:50.853Z,7.80
2018-07-27T23:42:54.458Z,7.22
2018-07-27T23:45:58.155Z,8.30
2018-07-27T23:49:01.753Z,8.15
2018-07-27T23:52:05.417Z,7.67
2018-07-27T23:55:09.061Z,7.72
2018-07-27T23:58:12.558Z,7.75
